createdAt,value
2022-08-12T00:00:39.244Z,15.60
2022-08-12T00:03:07.000Z,15.60
2022-08-12T00:05:36.364Z,15.50
2022-08-12T00:08:03.890Z,15.50
2022-08-12T00:10:31.018Z,15.50
2022-08-12T00:12:58.295Z,15.40
2022-08-12T00:15:26.661Z,15.40
2022-08-12T00:17:54.759Z,15.30
2022-08-12T00:20:21.933Z,15.30
2022-08-12T00:22:58.779Z,15.30
2022-08-12T00:26:19.020Z,15.30
2022-08-12T00:28:36.086Z,15.20
2022-08-12T00:31:03.619Z,15.20
2022-08-12T00:33:35.781Z,15.20
2022-08-12T00:36:32.425Z,15.10
2022-08-12T00:39:03.898Z,15.10
2022-08-12T00:41:32.391Z,15.10
2022-08-12T00:44:00.735Z,15.00
2022-08-12T00:46:59.557Z,15.00
2022-08-12T00:49:29.242Z,15.00
2022-08-12T00:51:59.577Z,15.00
2022-08-12T00:54:27.327Z,14.90
2022-08-12T00:57:02.267Z,14.90
2022-08-12T00:59:29.384Z,14.90
2022-08-12T01:02:00.856Z,14.90
2022-08-12T01:04:40.707Z,14.80
2022-08-12T01:07:08.933Z,14.80
2022-08-12T01:09:36.067Z,14.80
2022-08-12T01:12:05.144Z,14.80
2022-08-12T01:14:32.437Z,14.80
2022-08-12T01:17:00.177Z,14.70
2022-08-12T01:19:27.563Z,14.70
2022-08-12T01:22:11.072Z,14.70
2022-08-12T01:24:53.096Z,14.70
2022-08-12T01:27:22.466Z,14.60
2022-08-12T01:29:52.723Z,14.60
2022-08-12T01:32:22.419Z,14.60
2022-08-12T01:35:02.740Z,14.50
2022-08-12T01:37:31.246Z,14.50
2022-08-12T01:40:34.808Z,14.40
2022-08-12T01:42:51.747Z,14.40
2022-08-12T01:45:22.499Z,14.40
2022-08-12T01:48:09.328Z,14.40
2022-08-12T01:51:00.387Z,14.30
2022-08-12T01:53:56.444Z,14.30
2022-08-12T01:56:25.919Z,14.30
2022-08-12T01:58:57.808Z,14.30
2022-08-12T02:01:29.992Z,14.30
2022-08-12T02:04:06.775Z,14.30
2022-08-12T02:06:56.218Z,14.20
2022-08-12T02:09:39.572Z,14.20
2022-08-12T02:12:22.959Z,14.20
2022-08-12T02:15:23.328Z,14.20
2022-08-12T02:18:14.537Z,14.20
2022-08-12T02:21:13.777Z,14.10
2022-08-12T02:23:42.064Z,14.20
2022-08-12T02:26:12.476Z,14.20
2022-08-12T02:28:39.533Z,14.10
2022-08-12T02:31:08.671Z,14.10
2022-08-12T02:33:37.464Z,14.10
2022-08-12T02:36:06.135Z,14.10
2022-08-12T02:38:33.623Z,14.10
2022-08-12T02:41:04.319Z,14.10
2022-08-12T02:43:48.235Z,14.10
2022-08-12T02:46:20.695Z,14.00
2022-08-12T02:48:51.853Z,14.00
2022-08-12T02:51:30.220Z,14.00
2022-08-12T02:54:03.224Z,14.00
2022-08-12T02:56:37.214Z,14.00
2022-08-12T02:59:04.865Z,14.00
2022-08-12T03:01:33.882Z,14.00
2022-08-12T03:04:05.447Z,14.00
2022-08-12T03:06:38.009Z,13.90
2022-08-12T03:09:06.991Z,13.90
2022-08-12T03:11:50.568Z,13.80
2022-08-12T03:14:18.219Z,13.80
2022-08-12T03:16:52.491Z,13.80
2022-08-12T03:19:21.022Z,13.70
2022-08-12T03:21:54.680Z,13.70
2022-08-12T03:24:40.130Z,13.70
2022-08-12T03:27:09.932Z,13.70
2022-08-12T03:29:43.258Z,13.70
2022-08-12T03:32:35.614Z,13.70
2022-08-12T03:35:05.262Z,13.70
2022-08-12T03:37:35.399Z,13.70
2022-08-12T03:40:02.438Z,13.70
2022-08-12T03:42:37.881Z,13.70
2022-08-12T03:45:27.647Z,13.70
2022-08-12T03:48:01.716Z,13.70
2022-08-12T03:50:30.039Z,13.70
2022-08-12T03:52:57.265Z,13.70
2022-08-12T03:55:24.461Z,13.80
2022-08-12T03:57:51.569Z,13.80
2022-08-12T04:00:24.185Z,13.80
2022-08-12T04:02:56.274Z,14.00
2022-08-12T04:05:23.624Z,14.20
2022-08-12T04:08:11.035Z,14.40
2022-08-12T04:10:39.569Z,14.60
2022-08-12T04:13:06.599Z,14.60
2022-08-12T04:15:33.967Z,14.50
2022-08-12T04:18:06.467Z,14.50
2022-08-12T04:20:35.404Z,14.40
2022-08-12T04:23:03.340Z,14.40
2022-08-12T04:25:32.460Z,14.50
2022-08-12T04:28:09.648Z,14.60
2022-08-12T04:30:41.327Z,14.70
2022-08-12T04:33:09.169Z,14.70
2022-08-12T04:35:36.489Z,14.80
2022-08-12T04:38:04.445Z,14.90
2022-08-12T04:40:33.135Z,14.90
2022-08-12T04:43:00.792Z,14.90
2022-08-12T04:45:28.783Z,15.00
2022-08-12T04:47:56.320Z,15.10
2022-08-12T04:50:27.189Z,15.10
2022-08-12T04:53:04.037Z,15.10
2022-08-12T04:55:31.451Z,15.20
2022-08-12T04:58:00.601Z,15.10
2022-08-12T05:00:28.222Z,15.20
2022-08-12T05:02:55.321Z,15.40
2022-08-12T05:05:23.933Z,15.60
2022-08-12T05:07:54.083Z,15.60
2022-08-12T05:10:33.560Z,15.70
2022-08-12T05:13:07.928Z,15.70
2022-08-12T05:16:02.472Z,15.90
2022-08-12T05:18:25.918Z,16.20
2022-08-12T05:20:58.147Z,16.90
2022-08-12T05:23:25.197Z,17.70
2022-08-12T05:25:52.915Z,18.50
2022-08-12T05:28:19.926Z,19.40
2022-08-12T05:30:47.010Z,20.20
2022-08-12T05:33:14.641Z,21.00
2022-08-12T05:35:44.067Z,21.60
2022-08-12T05:38:13.795Z,22.30
2022-08-12T05:40:41.347Z,22.90
2022-08-12T05:43:08.509Z,23.50
2022-08-12T05:45:35.683Z,23.90
2022-08-12T05:48:03.255Z,24.30
2022-08-12T05:50:30.349Z,24.70
2022-08-12T05:52:57.461Z,25.20
2022-08-12T05:55:29.357Z,25.60
2022-08-12T05:57:58.317Z,26.00
2022-08-12T06:00:26.613Z,26.50
2022-08-12T06:02:54.254Z,26.90
2022-08-12T06:05:21.298Z,27.20
2022-08-12T06:07:59.689Z,27.70
2022-08-12T06:10:31.990Z,28.40
2022-08-12T06:13:06.112Z,29.60
2022-08-12T06:15:35.198Z,30.80
2022-08-12T06:18:04.281Z,32.10
2022-08-12T06:20:39.198Z,33.20
2022-08-12T06:23:09.080Z,34.30
2022-08-12T06:25:36.094Z,35.10
2022-08-12T06:28:07.927Z,35.60
2022-08-12T06:30:39.557Z,36.00
2022-08-12T06:33:24.860Z,36.30
2022-08-12T06:35:57.694Z,36.60
2022-08-12T06:38:27.685Z,36.80
2022-08-12T06:40:59.920Z,37.00
2022-08-12T06:43:27.369Z,37.50
2022-08-12T06:45:55.086Z,37.90
2022-08-12T06:48:22.222Z,38.00
2022-08-12T06:50:49.606Z,38.30
2022-08-12T06:53:16.723Z,38.40
2022-08-12T06:55:57.793Z,38.70
2022-08-12T06:58:26.882Z,39.10
2022-08-12T07:00:54.819Z,39.30
2022-08-12T07:03:23.240Z,39.30
2022-08-12T07:05:51.898Z,39.70
2022-08-12T07:08:19.069Z,39.50
2022-08-12T07:10:48.692Z,39.60
2022-08-12T07:13:16.423Z,40.10
2022-08-12T07:15:43.444Z,40.20
2022-08-12T07:18:12.778Z,40.40
2022-08-12T07:20:53.206Z,40.50
2022-08-12T07:23:20.891Z,40.00
2022-08-12T07:25:48.450Z,40.20
2022-08-12T07:28:19.916Z,40.10
2022-08-12T07:30:48.210Z,40.10
2022-08-12T07:33:16.671Z,40.00
2022-08-12T07:35:44.461Z,39.40
2022-08-12T07:38:30.478Z,39.60
2022-08-12T07:41:02.486Z,39.80
2022-08-12T07:43:30.886Z,39.80
2022-08-12T07:45:58.568Z,39.40
2022-08-12T07:48:26.949Z,39.10
2022-08-12T07:50:54.482Z,38.80
2022-08-12T07:53:21.952Z,38.90
2022-08-12T07:55:49.310Z,38.60
2022-08-12T07:58:16.488Z,38.80
2022-08-12T08:00:43.615Z,39.00
2022-08-12T08:03:11.016Z,39.10
2022-08-12T08:05:38.380Z,38.80
2022-08-12T08:08:16.539Z,38.90
2022-08-12T08:10:44.768Z,38.40
2022-08-12T08:13:12.099Z,37.80
2022-08-12T08:18:28.139Z,38.30
2022-08-12T08:20:56.434Z,38.30
2022-08-12T08:23:29.336Z,39.00
2022-08-12T08:26:02.907Z,39.10
2022-08-12T08:28:30.046Z,38.60
2022-08-12T08:30:57.076Z,39.40
2022-08-12T08:34:09.460Z,39.50
2022-08-12T08:36:23.499Z,39.40
2022-08-12T08:38:57.700Z,39.80
2022-08-12T08:42:18.803Z,39.70
2022-08-12T08:44:12.944Z,39.10
2022-08-12T08:46:40.924Z,39.40
2022-08-12T08:49:08.094Z,39.10
2022-08-12T08:51:36.260Z,39.40
2022-08-12T08:54:03.485Z,39.70
2022-08-12T08:56:30.492Z,38.70
2022-08-12T08:58:58.817Z,37.00
2022-08-12T09:01:37.425Z,35.10
2022-08-12T09:05:12.658Z,33.50
2022-08-12T09:10:02.501Z,31.70
2022-08-12T09:12:28.819Z,31.00
2022-08-12T09:14:57.600Z,30.10
2022-08-12T09:17:24.686Z,29.70
2022-08-12T09:19:58.177Z,29.40
2022-08-12T09:25:25.755Z,28.80
2022-08-12T09:28:03.922Z,28.80
2022-08-12T09:30:44.120Z,28.50
2022-08-12T09:33:14.819Z,28.00
2022-08-12T09:35:46.658Z,27.40
2022-08-12T09:38:32.129Z,27.10
2022-08-12T09:42:07.824Z,27.00
2022-08-12T09:44:00.784Z,27.00
2022-08-12T09:46:28.726Z,26.90
2022-08-12T09:49:04.080Z,26.80
2022-08-12T09:51:43.688Z,26.40
2022-08-12T09:54:33.424Z,26.50
2022-08-12T09:57:03.687Z,26.80
2022-08-12T10:00:12.695Z,27.00
2022-08-12T10:02:44.708Z,27.10
2022-08-12T10:05:17.943Z,26.90
2022-08-12T10:07:47.930Z,26.50
2022-08-12T10:10:22.751Z,26.10
2022-08-12T10:13:07.029Z,26.00
2022-08-12T10:16:01.851Z,26.00
2022-08-12T10:18:27.233Z,25.70
2022-08-12T10:20:54.207Z,25.60
2022-08-12T10:23:39.288Z,25.40
2022-08-12T10:26:34.967Z,25.20
2022-08-12T10:29:02.694Z,25.00
2022-08-12T10:32:15.640Z,25.10
2022-08-12T10:34:26.099Z,25.20
2022-08-12T10:37:00.450Z,25.20
2022-08-12T10:40:01.075Z,25.30
2022-08-12T10:42:39.539Z,25.40
2022-08-12T10:45:14.325Z,25.40
2022-08-12T10:48:16.090Z,25.60
2022-08-12T10:51:00.928Z,25.50
2022-08-12T10:53:20.091Z,25.40
2022-08-12T10:55:51.097Z,25.40
2022-08-12T10:58:28.218Z,25.20
2022-08-12T11:01:48.921Z,25.10
2022-08-12T11:04:31.873Z,25.30
2022-08-12T11:07:08.366Z,25.30
2022-08-12T11:09:55.670Z,25.40
2022-08-12T11:12:55.208Z,25.30
2022-08-12T11:14:58.705Z,25.20
2022-08-12T11:17:34.418Z,25.30
2022-08-12T11:20:14.922Z,25.30
2022-08-12T11:22:42.681Z,25.50
2022-08-12T11:25:25.547Z,25.80
2022-08-12T11:28:13.889Z,25.90
2022-08-12T11:30:42.352Z,25.80
2022-08-12T11:33:12.373Z,25.50
2022-08-12T11:35:56.295Z,25.20
2022-08-12T11:38:26.243Z,24.90
2022-08-12T11:40:54.080Z,24.80
2022-08-12T11:43:21.218Z,24.80
2022-08-12T11:45:53.182Z,25.00
2022-08-12T11:48:27.027Z,25.20
2022-08-12T11:50:55.014Z,25.20
2022-08-12T11:53:58.528Z,25.10
2022-08-12T11:56:11.422Z,25.00
2022-08-12T12:01:58.763Z,24.70
2022-08-12T12:02:02.015Z,24.50
2022-08-12T12:04:13.142Z,24.20
2022-08-12T12:07:07.243Z,24.10
2022-08-12T12:09:53.083Z,24.10
2022-08-12T12:12:23.370Z,24.40
2022-08-12T12:14:54.746Z,24.60
2022-08-12T12:17:25.116Z,24.80
2022-08-12T12:19:53.445Z,24.90
2022-08-12T12:22:23.081Z,24.80
2022-08-12T12:24:51.380Z,24.70
2022-08-12T12:27:19.465Z,24.60
2022-08-12T12:30:18.784Z,24.50
2022-08-12T12:32:34.642Z,24.50
2022-08-12T12:35:18.400Z,24.50
2022-08-12T12:38:04.057Z,24.60
2022-08-12T12:40:39.713Z,24.80
2022-08-12T12:43:08.650Z,24.90
2022-08-12T12:45:37.047Z,25.00
2022-08-12T12:48:12.140Z,25.20
2022-08-12T12:50:51.466Z,25.40
2022-08-12T12:54:05.132Z,25.40
2022-08-12T12:56:07.886Z,25.30
2022-08-12T12:58:35.303Z,25.20
2022-08-12T13:01:04.810Z,24.70
2022-08-12T13:03:49.852Z,24.80
2022-08-12T13:06:19.037Z,24.90
2022-08-12T13:08:48.169Z,25.10
2022-08-12T13:11:16.038Z,25.40
2022-08-12T13:14:07.475Z,25.60
2022-08-12T13:16:30.696Z,25.60
2022-08-12T13:18:58.455Z,25.20
2022-08-12T13:21:33.496Z,25.10
2022-08-12T13:24:09.915Z,24.90
2022-08-12T13:26:38.417Z,24.70
2022-08-12T13:29:05.912Z,24.60
2022-08-12T13:31:46.567Z,24.70
2022-08-12T13:34:32.316Z,24.80
2022-08-12T13:37:03.780Z,25.00
2022-08-12T13:39:31.566Z,24.90
2022-08-12T13:42:00.156Z,24.90
2022-08-12T13:44:29.315Z,24.90
2022-08-12T13:46:58.998Z,24.80
2022-08-12T13:49:54.913Z,24.70
2022-08-12T13:52:16.078Z,24.50
2022-08-12T13:54:43.080Z,24.30
2022-08-12T13:57:23.639Z,24.20
2022-08-12T13:59:55.419Z,24.10
2022-08-12T14:02:24.263Z,24.10
2022-08-12T14:04:56.014Z,24.20
2022-08-12T14:07:25.972Z,24.10
2022-08-12T14:09:54.557Z,24.20
2022-08-12T14:12:21.631Z,24.30
2022-08-12T14:14:51.295Z,24.30
2022-08-12T14:17:19.963Z,24.50
2022-08-12T14:19:53.661Z,24.60
2022-08-12T14:22:26.020Z,24.80
2022-08-12T14:24:53.519Z,25.00
2022-08-12T14:28:04.681Z,25.10
2022-08-12T14:30:15.773Z,25.00
2022-08-12T14:32:50.907Z,24.90
2022-08-12T14:35:21.669Z,24.60
2022-08-12T14:37:56.575Z,24.40
2022-08-12T14:40:27.470Z,24.20
2022-08-12T14:42:56.918Z,24.10
2022-08-12T14:45:24.756Z,24.00
2022-08-12T14:48:14.858Z,23.90
2022-08-12T14:52:10.716Z,23.90
2022-08-12T14:57:05.565Z,23.80
2022-08-12T14:59:23.385Z,23.90
2022-08-12T15:01:52.014Z,24.00
2022-08-12T15:04:19.932Z,23.80
2022-08-12T15:06:52.014Z,24.10
2022-08-12T15:09:28.617Z,24.30
2022-08-12T15:12:03.069Z,24.50
2022-08-12T15:14:32.022Z,24.60
2022-08-12T15:17:00.649Z,24.80
2022-08-12T15:20:28.661Z,24.80
2022-08-12T15:22:38.922Z,24.80
2022-08-12T15:25:07.526Z,24.60
2022-08-12T15:28:03.851Z,24.50
2022-08-12T15:30:23.957Z,24.30
2022-08-12T15:32:52.143Z,24.10
2022-08-12T15:35:20.710Z,24.00
2022-08-12T15:38:09.654Z,23.90
2022-08-12T15:40:46.925Z,23.90
2022-08-12T15:44:14.176Z,23.80
2022-08-12T15:46:05.101Z,23.70
2022-08-12T15:48:32.416Z,23.70
2022-08-12T15:51:00.463Z,23.70
2022-08-12T15:53:28.379Z,23.70
2022-08-12T15:56:00.825Z,23.90
2022-08-12T15:58:28.916Z,24.00
2022-08-12T16:01:00.978Z,24.20
2022-08-12T16:03:46.102Z,24.30
2022-08-12T16:06:36.391Z,24.40
2022-08-12T16:09:03.945Z,24.40
2022-08-12T16:11:43.384Z,24.30
2022-08-12T16:14:10.637Z,24.20
2022-08-12T16:16:38.159Z,24.10
2022-08-12T16:19:18.788Z,23.80
2022-08-12T16:21:58.238Z,24.00
2022-08-12T16:24:26.102Z,23.90
2022-08-12T16:26:54.453Z,23.80
2022-08-12T16:29:22.737Z,23.70
2022-08-12T16:31:49.910Z,23.60
2022-08-12T16:34:26.233Z,23.60
2022-08-12T16:37:08.074Z,23.50
2022-08-12T16:39:59.927Z,23.60
2022-08-12T16:42:23.326Z,23.50
2022-08-12T16:44:59.795Z,23.50
2022-08-12T16:47:29.306Z,23.50
2022-08-12T16:50:16.611Z,23.50
2022-08-12T16:52:50.005Z,23.50
2022-08-12T16:55:18.719Z,23.40
2022-08-12T16:57:46.212Z,23.40
2022-08-12T17:00:15.038Z,23.40
2022-08-12T17:02:50.676Z,23.40
2022-08-12T17:05:31.193Z,23.40
2022-08-12T17:08:00.513Z,23.40
2022-08-12T17:10:36.196Z,23.40
2022-08-12T17:13:09.921Z,23.40
2022-08-12T17:15:56.849Z,23.40
2022-08-12T17:18:42.291Z,23.40
2022-08-12T17:21:15.366Z,23.50
2022-08-12T17:23:53.839Z,23.50
2022-08-12T17:26:28.457Z,23.50
2022-08-12T17:28:59.855Z,23.50
2022-08-12T17:32:01.754Z,23.50
2022-08-12T17:34:17.701Z,23.40
2022-08-12T17:36:44.945Z,23.40
2022-08-12T17:39:16.189Z,23.40
2022-08-12T17:41:56.403Z,23.30
2022-08-12T17:44:24.779Z,23.30
2022-08-12T17:46:53.836Z,23.20
2022-08-12T17:50:03.342Z,23.20
2022-08-12T17:52:10.068Z,23.20
2022-08-12T17:54:37.707Z,23.10
2022-08-12T17:57:16.045Z,23.00
2022-08-12T17:59:48.119Z,23.10
2022-08-12T18:02:17.993Z,23.10
2022-08-12T18:05:09.422Z,23.00
2022-08-12T18:07:39.476Z,23.00
2022-08-12T18:10:08.527Z,22.90
2022-08-12T18:12:36.334Z,22.90
2022-08-12T18:15:08.955Z,22.90
2022-08-12T18:17:39.423Z,22.80
2022-08-12T18:20:10.575Z,22.70
2022-08-12T18:22:44.261Z,22.60
2022-08-12T18:26:15.907Z,22.30
2022-08-12T18:28:15.672Z,22.50
2022-08-12T18:30:52.748Z,22.50
2022-08-12T18:33:22.456Z,22.40
2022-08-12T18:35:53.762Z,22.30
2022-08-12T18:38:24.554Z,22.30
2022-08-12T18:40:54.811Z,22.30
2022-08-12T18:43:22.314Z,22.20
2022-08-12T18:45:57.164Z,22.20
2022-08-12T18:48:26.934Z,22.20
2022-08-12T18:51:07.398Z,22.00
2022-08-12T18:54:07.240Z,22.10
2022-08-12T18:56:33.352Z,22.00
2022-08-12T18:59:02.904Z,22.00
2022-08-12T19:02:13.463Z,22.00
2022-08-12T19:04:18.635Z,22.00
2022-08-12T19:06:46.441Z,21.90
2022-08-12T19:09:15.058Z,21.90
2022-08-12T19:11:45.255Z,21.90
2022-08-12T19:14:14.847Z,21.80
2022-08-12T19:16:41.917Z,21.70
2022-08-12T19:19:10.011Z,21.70
2022-08-12T19:21:38.572Z,21.60
2022-08-12T19:24:07.530Z,21.40
2022-08-12T19:26:35.716Z,21.30
2022-08-12T19:29:04.799Z,21.20
2022-08-12T19:31:57.406Z,21.00
2022-08-12T19:34:37.750Z,21.00
2022-08-12T19:37:09.967Z,20.90
2022-08-12T19:40:07.805Z,20.80
2022-08-12T19:42:27.537Z,20.70
2022-08-12T19:44:57.276Z,20.70
2022-08-12T19:47:25.460Z,20.60
2022-08-12T19:49:56.873Z,20.60
2022-08-12T19:52:33.084Z,20.50
2022-08-12T19:55:01.745Z,20.50
2022-08-12T19:57:29.973Z,20.40
2022-08-12T20:00:03.436Z,19.90
2022-08-12T20:02:33.071Z,20.30
2022-08-12T20:06:05.932Z,20.20
2022-08-12T20:07:56.847Z,20.10
2022-08-12T20:10:35.320Z,20.10
2022-08-12T20:13:17.914Z,20.10
2022-08-12T20:15:46.551Z,20.00
2022-08-12T20:18:44.419Z,19.90
2022-08-12T20:21:07.676Z,19.90
2022-08-12T20:23:59.740Z,19.90
2022-08-12T20:26:27.716Z,19.80
2022-08-12T20:28:55.245Z,19.70
2022-08-12T20:31:22.375Z,19.60
2022-08-12T20:33:56.437Z,19.60
2022-08-12T20:36:42.887Z,19.50
2022-08-12T20:39:35.979Z,19.40
2022-08-12T20:42:04.184Z,19.40
2022-08-12T20:44:35.658Z,19.30
2022-08-12T20:47:17.822Z,19.30
2022-08-12T20:49:47.065Z,19.30
2022-08-12T20:52:24.327Z,19.20
2022-08-12T20:54:52.139Z,19.20
2022-08-12T20:57:21.960Z,19.10
2022-08-12T20:59:50.898Z,19.10
2022-08-12T21:02:24.513Z,19.00
2022-08-12T21:04:52.345Z,19.00
2022-08-12T21:07:23.467Z,18.90
2022-08-12T21:09:51.856Z,18.90
2022-08-12T21:12:30.924Z,18.90
2022-08-12T21:15:23.540Z,18.80
2022-08-12T21:18:11.420Z,18.80
2022-08-12T21:20:50.136Z,18.80
2022-08-12T21:23:18.961Z,18.70
2022-08-12T21:25:46.492Z,18.70
2022-08-12T21:28:14.681Z,18.70
2022-08-12T21:30:42.365Z,18.60
2022-08-12T21:33:31.027Z,18.60
2022-08-12T21:35:59.168Z,18.50
2022-08-12T21:38:26.191Z,18.50
2022-08-12T21:41:09.113Z,18.40
2022-08-12T21:43:44.900Z,18.40
2022-08-12T21:46:33.706Z,18.40
2022-08-12T21:49:04.621Z,18.30
2022-08-12T21:51:49.038Z,18.30
2022-08-12T21:54:21.881Z,18.20
2022-08-12T21:56:51.373Z,18.20
2022-08-12T21:59:21.715Z,18.20
2022-08-12T22:01:49.732Z,18.20
2022-08-12T22:04:17.990Z,18.10
2022-08-12T22:06:45.016Z,18.00
2022-08-12T22:09:16.437Z,18.00
2022-08-12T22:11:56.020Z,17.90
2022-08-12T22:14:29.918Z,17.90
2022-08-12T22:17:00.571Z,17.90
2022-08-12T22:19:28.128Z,17.90
2022-08-12T22:21:56.198Z,17.90
2022-08-12T22:24:30.016Z,17.90
2022-08-12T22:27:17.990Z,17.80
2022-08-12T22:29:50.747Z,17.80
2022-08-12T22:32:18.004Z,17.70
2022-08-12T22:34:47.367Z,17.70
2022-08-12T22:37:19.853Z,17.70
2022-08-12T22:39:49.170Z,17.60
2022-08-12T22:42:19.805Z,17.60
2022-08-12T22:44:54.832Z,17.60
2022-08-12T22:47:54.040Z,17.50
2022-08-12T22:50:10.199Z,17.50
2022-08-12T22:52:59.128Z,17.50
2022-08-12T22:55:53.402Z,17.40
2022-08-12T22:58:14.410Z,17.40
2022-08-12T23:00:43.453Z,17.40
2022-08-12T23:03:48.715Z,17.40
2022-08-12T23:06:10.341Z,17.30
2022-08-12T23:08:38.335Z,17.30
2022-08-12T23:11:08.395Z,17.20
2022-08-12T23:13:43.884Z,17.10
2022-08-12T23:16:28.239Z,17.10
2022-08-12T23:19:10.806Z,17.10
2022-08-12T23:22:06.192Z,17.10
2022-08-12T23:24:39.059Z,17.10
2022-08-12T23:27:08.840Z,17.10
2022-08-12T23:29:43.779Z,17.00
2022-08-12T23:32:36.036Z,17.00
2022-08-12T23:35:06.715Z,17.00
2022-08-12T23:37:47.828Z,16.90
2022-08-12T23:40:24.707Z,16.90
2022-08-12T23:42:53.070Z,16.90
2022-08-12T23:45:30.694Z,16.90
2022-08-12T23:48:01.322Z,16.90
2022-08-12T23:50:33.748Z,16.90
2022-08-12T23:53:05.570Z,16.90
2022-08-12T23:55:40.486Z,16.90
2022-08-12T23:58:18.140Z,16.80
